createdAt,value
2022-08-05T00:00:20.045Z,100276.19
2022-08-05T00:02:51.021Z,100276.28
2022-08-05T00:06:01.768Z,100281.25
2022-08-05T00:08:33.044Z,100273.88
2022-08-05T00:11:00.569Z,100268.94
2022-08-05T00:13:38.730Z,100263.13
2022-08-05T00:16:12.848Z,100240.22
2022-08-05T00:18:48.645Z,100254.88
2022-08-05T00:21:17.465Z,100273.59
2022-08-05T00:23:53.753Z,100272.69
2022-08-05T00:26:33.593Z,100271.94
2022-08-05T00:29:00.693Z,100269.00
2022-08-05T00:31:53.862Z,100255.41
2022-08-05T00:34:54.739Z,100255.16
2022-08-05T00:37:10.448Z,100250.13
2022-08-05T00:39:57.100Z,100264.28
2022-08-05T00:42:36.704Z,100252.72
2022-08-05T00:45:08.809Z,100265.28
2022-08-05T00:47:57.187Z,100281.63
2022-08-05T00:50:26.793Z,100261.81
2022-08-05T00:52:54.998Z,100288.47
2022-08-05T00:55:34.238Z,100317.06
2022-08-05T00:58:11.660Z,100305.75
2022-08-05T01:00:40.487Z,100311.75
2022-08-05T01:03:22.233Z,100308.91
2022-08-05T01:05:54.468Z,100303.16
2022-08-05T01:08:40.996Z,100288.00
2022-08-05T01:11:22.560Z,100289.34
2022-08-05T01:14:18.172Z,100282.25
2022-08-05T01:17:14.131Z,100276.28
2022-08-05T01:20:03.070Z,100277.06
2022-08-05T01:23:15.120Z,100293.31
2022-08-05T01:25:58.145Z,100306.63
2022-08-05T01:28:33.224Z,100298.13
2022-08-05T01:31:12.381Z,100286.41
2022-08-05T01:33:51.916Z,100300.38
2022-08-05T01:36:28.343Z,100302.09
2022-08-05T01:39:01.228Z,100321.69
2022-08-05T01:41:33.775Z,100311.78
2022-08-05T01:44:02.962Z,100305.06
2022-08-05T01:46:42.417Z,100301.38
2022-08-05T01:49:23.268Z,100306.25
2022-08-05T01:51:58.302Z,100300.84
2022-08-05T01:54:46.206Z,100282.91
2022-08-05T01:58:12.557Z,100293.91
2022-08-05T02:00:11.687Z,100301.63
2022-08-05T02:02:54.541Z,100287.00
2022-08-05T02:05:28.601Z,100283.28
2022-08-05T02:08:01.601Z,100279.28
2022-08-05T02:10:40.200Z,100275.63
2022-08-05T02:13:16.252Z,100275.56
2022-08-05T02:16:04.506Z,100286.28
2022-08-05T02:18:42.506Z,100292.78
2022-08-05T02:21:19.871Z,100296.03
2022-08-05T02:23:52.399Z,100299.22
2022-08-05T02:26:26.478Z,100300.03
2022-08-05T02:28:56.352Z,100314.72
2022-08-05T02:31:28.607Z,100312.13
2022-08-05T02:34:06.962Z,100315.91
2022-08-05T02:36:50.781Z,100323.47
2022-08-05T02:39:21.418Z,100335.44
2022-08-05T02:42:00.698Z,100345.75
2022-08-05T02:44:32.007Z,100341.88
2022-08-05T02:47:01.089Z,100337.50
2022-08-05T02:49:37.019Z,100337.59
2022-08-05T02:52:13.654Z,100353.56
2022-08-05T02:54:58.914Z,100351.59
2022-08-05T02:58:10.506Z,100369.22
2022-08-05T03:00:18.409Z,100364.75
2022-08-05T03:02:47.544Z,100353.75
2022-08-05T03:05:16.351Z,100335.84
2022-08-05T03:08:01.617Z,100319.94
2022-08-05T03:10:32.083Z,100306.84
2022-08-05T03:15:26.711Z,100335.25
2022-08-05T03:17:57.743Z,100353.19
2022-08-05T03:20:25.260Z,100350.75
2022-08-05T03:22:53.366Z,100333.97
2022-08-05T03:26:02.630Z,100306.50
2022-08-05T03:28:14.095Z,100271.09
2022-08-05T03:30:42.439Z,100300.25
2022-08-05T03:33:10.107Z,100285.84
2022-08-05T03:35:41.322Z,100313.31
2022-08-05T03:38:11.959Z,100324.00
2022-08-05T03:40:45.332Z,100345.47
2022-08-05T03:44:09.830Z,100357.22
2022-08-05T03:46:04.605Z,100355.50
2022-08-05T03:48:35.677Z,100360.88
2022-08-05T03:52:37.398Z,100345.41
2022-08-05T03:55:53.611Z,100347.47
2022-08-05T03:57:00.382Z,100338.50
2022-08-05T03:59:46.762Z,100350.34
2022-08-05T04:02:37.556Z,100348.69
2022-08-05T04:05:09.736Z,100343.81
2022-08-05T04:07:57.135Z,100340.56
2022-08-05T04:10:25.308Z,100355.38
2022-08-05T04:12:58.971Z,100360.31
2022-08-05T04:15:32.935Z,100352.97
2022-08-05T04:18:07.347Z,100355.41
2022-08-05T04:20:37.108Z,100344.38
2022-08-05T04:23:04.769Z,100343.97
2022-08-05T04:25:56.912Z,100359.13
2022-08-05T04:28:21.288Z,100346.84
2022-08-05T04:30:58.897Z,100347.31
2022-08-05T04:33:54.468Z,100344.06
2022-08-05T04:36:49.903Z,100339.19
2022-08-05T04:39:04.433Z,100341.63
2022-08-05T04:41:37.314Z,100332.66
2022-08-05T04:44:09.018Z,100347.34
2022-08-05T04:46:38.641Z,100340.81
2022-08-05T04:49:14.500Z,100334.25
2022-08-05T04:51:44.201Z,100335.44
2022-08-05T04:54:12.100Z,100335.88
2022-08-05T04:56:40.125Z,100316.31
2022-08-05T04:59:13.963Z,100311.00
2022-08-05T05:02:08.387Z,100323.66
2022-08-05T05:04:38.492Z,100324.88
2022-08-05T05:07:12.264Z,100341.22
2022-08-05T05:09:43.483Z,100328.63
2022-08-05T05:12:11.837Z,100333.13
2022-08-05T05:14:49.559Z,100335.13
2022-08-05T05:17:23.717Z,100349.03
2022-08-05T05:19:58.033Z,100338.41
2022-08-05T05:22:27.411Z,100345.34
2022-08-05T05:25:00.327Z,100348.22
2022-08-05T05:27:44.195Z,100344.91
2022-08-05T05:30:30.941Z,100359.66
2022-08-05T05:33:13.948Z,100355.56
2022-08-05T05:35:47.462Z,100354.72
2022-08-05T05:38:27.021Z,100358.78
2022-08-05T05:40:58.390Z,100357.97
2022-08-05T05:43:54.225Z,100346.09
2022-08-05T05:46:17.616Z,100336.66
2022-08-05T05:48:48.923Z,100347.28
2022-08-05T05:51:23.824Z,100359.13
2022-08-05T05:53:57.226Z,100357.91
2022-08-05T05:56:32.634Z,100358.72
2022-08-05T05:59:06.789Z,100346.91
2022-08-05T06:01:39.602Z,100349.38
2022-08-05T06:04:14.579Z,100349.81
2022-08-05T06:06:47.407Z,100358.81
2022-08-05T06:09:25.813Z,100372.28
2022-08-05T06:12:03.147Z,100365.31
2022-08-05T06:14:31.200Z,100360.06
2022-08-05T06:16:59.291Z,100368.63
2022-08-05T06:19:34.967Z,100341.69
2022-08-05T06:22:09.385Z,100347.81
2022-08-05T06:24:41.800Z,100337.59
2022-08-05T06:28:09.142Z,100335.56
2022-08-05T06:30:20.072Z,100352.31
2022-08-05T06:32:50.788Z,100349.44
2022-08-05T06:36:02.906Z,100351.91
2022-08-05T06:38:11.242Z,100333.91
2022-08-05T06:40:42.119Z,100331.88
2022-08-05T06:43:58.622Z,100345.75
2022-08-05T06:46:06.561Z,100322.09
2022-08-05T06:48:55.688Z,100322.09
2022-08-05T06:51:30.235Z,100327.41
2022-08-05T06:53:59.586Z,100341.28
2022-08-05T06:56:28.154Z,100333.53
2022-08-05T06:58:56.048Z,100347.00
2022-08-05T07:01:27.700Z,100326.16
2022-08-05T07:04:02.428Z,100334.28
2022-08-05T07:06:31.807Z,100329.41
2022-08-05T07:09:03.839Z,100332.63
2022-08-05T07:11:37.192Z,100338.34
2022-08-05T07:14:28.876Z,100331.41
2022-08-05T07:17:58.595Z,100345.25
2022-08-05T07:22:38.226Z,100352.97
2022-08-05T07:25:23.945Z,100351.72
2022-08-05T07:28:00.729Z,100353.81
2022-08-05T07:30:33.691Z,100357.09
2022-08-05T07:33:04.968Z,100362.78
2022-08-05T07:36:03.642Z,100356.25
2022-08-05T07:38:26.377Z,100364.88
2022-08-05T07:42:09.547Z,100384.03
2022-08-05T07:43:57.023Z,100397.59
2022-08-05T07:46:30.649Z,100385.34
2022-08-05T07:49:04.991Z,100368.16
2022-08-05T07:51:40.601Z,100339.16
2022-08-05T07:54:16.658Z,100329.25
2022-08-05T07:57:14.828Z,100348.31
2022-08-05T07:59:40.563Z,100354.75
2022-08-05T08:02:15.750Z,100322.38
2022-08-05T08:04:49.645Z,100350.88
2022-08-05T08:07:23.138Z,100341.53
2022-08-05T08:09:54.971Z,100334.66
2022-08-05T08:12:36.960Z,100319.41
2022-08-05T08:15:15.553Z,100349.91
2022-08-05T08:17:52.471Z,100335.63
2022-08-05T08:20:59.833Z,100334.31
2022-08-05T08:24:00.094Z,100336.31
2022-08-05T08:26:00.260Z,100315.53
2022-08-05T08:28:35.562Z,100321.47
2022-08-05T08:33:59.365Z,100311.69
2022-08-05T08:36:38.364Z,100325.09
2022-08-05T08:39:15.435Z,100303.16
2022-08-05T08:41:59.740Z,100311.72
2022-08-05T08:45:20.397Z,100331.34
2022-08-05T08:48:06.147Z,100325.25
2022-08-05T08:50:31.224Z,100319.22
2022-08-05T08:53:08.195Z,100329.50
2022-08-05T08:56:03.556Z,100318.25
2022-08-05T08:58:43.132Z,100343.53
2022-08-05T09:01:16.355Z,100323.16
2022-08-05T09:03:55.079Z,100348.09
2022-08-05T09:06:28.020Z,100327.38
2022-08-05T09:09:01.655Z,100326.59
2022-08-05T09:11:50.747Z,100301.72
2022-08-05T09:14:58.583Z,100316.88
2022-08-05T09:17:09.801Z,100317.72
2022-08-05T09:20:02.717Z,100322.63
2022-08-05T09:23:27.271Z,100320.59
2022-08-05T09:26:20.675Z,100329.25
2022-08-05T09:28:50.196Z,100322.31
2022-08-05T09:31:43.562Z,100322.75
2022-08-05T09:34:10.438Z,100331.34
2022-08-05T09:36:38.844Z,100317.09
2022-08-05T09:39:27.610Z,100306.50
2022-08-05T09:42:11.369Z,100318.75
2022-08-05T09:44:56.430Z,100313.91
2022-08-05T09:47:36.495Z,100310.63
2022-08-05T09:50:37.530Z,100304.53
2022-08-05T09:53:06.247Z,100319.66
2022-08-05T09:55:57.336Z,100314.75
2022-08-05T09:58:26.049Z,100330.25
2022-08-05T10:01:01.547Z,100320.47
2022-08-05T10:03:38.761Z,100310.66
2022-08-05T10:06:22.325Z,100303.69
2022-08-05T10:08:53.765Z,100292.66
2022-08-05T10:11:23.317Z,100299.16
2022-08-05T10:13:54.526Z,100305.69
2022-08-05T10:16:37.890Z,100320.00
2022-08-05T10:19:23.646Z,100306.53
2022-08-05T10:21:59.597Z,100322.41
2022-08-05T10:24:28.643Z,100306.47
2022-08-05T10:27:00.245Z,100301.97
2022-08-05T10:30:06.638Z,100312.53
2022-08-05T10:32:53.124Z,100304.72
2022-08-05T10:35:08.638Z,100307.19
2022-08-05T10:37:40.103Z,100315.38
2022-08-05T10:40:34.581Z,100306.31
2022-08-05T10:43:41.709Z,100307.53
2022-08-05T10:46:11.775Z,100312.78
2022-08-05T10:48:57.086Z,100310.72
2022-08-05T10:51:29.325Z,100293.91
2022-08-05T10:54:05.914Z,100314.22
2022-08-05T10:56:57.896Z,100330.59
2022-08-05T11:00:02.793Z,100288.03
2022-08-05T11:02:38.451Z,100309.19
2022-08-05T11:05:11.007Z,100302.63
2022-08-05T11:08:36.561Z,100293.53
2022-08-05T11:11:52.371Z,100289.31
2022-08-05T11:17:59.746Z,100287.66
2022-08-05T11:20:43.860Z,100315.00
2022-08-05T11:24:04.387Z,100274.84
2022-08-05T11:26:32.586Z,100265.41
2022-08-05T11:29:13.385Z,100297.25
2022-08-05T11:31:54.040Z,100293.19
2022-08-05T11:34:37.959Z,100285.09
2022-08-05T11:38:14.314Z,100281.91
2022-08-05T11:40:00.255Z,100285.91
2022-08-05T11:42:40.560Z,100288.41
2022-08-05T11:45:23.039Z,100291.38
2022-08-05T11:47:57.377Z,100295.84
2022-08-05T11:50:26.412Z,100257.47
2022-08-05T11:52:57.706Z,100258.09
2022-08-05T11:55:32.296Z,100279.31
2022-08-05T11:58:10.969Z,100255.22
2022-08-05T12:00:41.326Z,100270.25
2022-08-05T12:03:31.320Z,100263.16
2022-08-05T12:06:02.105Z,100267.66
2022-08-05T12:08:31.737Z,100264.78
2022-08-05T12:11:05.730Z,100277.97
2022-08-05T12:13:48.639Z,100264.41
2022-08-05T12:16:27.175Z,100291.88
2022-08-05T12:18:57.488Z,100277.28
2022-08-05T12:21:39.151Z,100263.94
2022-08-05T12:24:19.534Z,100281.81
2022-08-05T12:26:50.314Z,100280.13
2022-08-05T12:29:23.533Z,100257.59
2022-08-05T12:31:54.391Z,100275.84
2022-08-05T12:34:26.961Z,100269.19
2022-08-05T12:36:57.281Z,100273.97
2022-08-05T12:39:28.140Z,100274.34
2022-08-05T12:42:03.573Z,100280.94
2022-08-05T12:44:33.915Z,100270.84
2022-08-05T12:47:02.738Z,100270.47
2022-08-05T12:50:03.970Z,100278.25
2022-08-05T12:52:41.854Z,100263.38
2022-08-05T12:55:28.327Z,100279.88
2022-08-05T12:58:48.828Z,100274.97
2022-08-05T13:02:03.859Z,100282.25
2022-08-05T13:03:42.184Z,100278.84
2022-08-05T13:06:18.307Z,100278.78
2022-08-05T13:08:52.073Z,100274.72
2022-08-05T13:12:01.577Z,100282.53
2022-08-05T13:14:25.005Z,100269.97
2022-08-05T13:17:09.132Z,100270.06
2022-08-05T13:19:51.091Z,100267.66
2022-08-05T13:22:29.138Z,100261.56
2022-08-05T13:25:00.614Z,100266.47
2022-08-05T13:27:38.233Z,100257.53
2022-08-05T13:30:34.414Z,100263.25
2022-08-05T13:33:04.304Z,100245.69
2022-08-05T13:35:47.436Z,100248.09
2022-08-05T13:38:31.115Z,100254.22
2022-08-05T13:41:04.003Z,100249.28
2022-08-05T13:43:45.618Z,100239.50
2022-08-05T13:46:35.854Z,100245.13
2022-08-05T13:49:10.495Z,100237.34
2022-08-05T13:51:46.409Z,100245.84
2022-08-05T13:54:16.552Z,100242.06
2022-08-05T13:56:51.378Z,100225.66
2022-08-05T13:59:26.861Z,100252.75
2022-08-05T14:01:58.832Z,100246.56
2022-08-05T14:04:56.124Z,100241.72
2022-08-05T14:08:00.844Z,100249.44
2022-08-05T14:10:28.553Z,100258.47
2022-08-05T14:12:59.454Z,100267.16
2022-08-05T14:16:08.773Z,100260.56
2022-08-05T14:18:17.680Z,100266.25
2022-08-05T14:20:54.546Z,100277.31
2022-08-05T14:23:25.831Z,100276.09
2022-08-05T14:25:58.763Z,100263.91
2022-08-05T14:28:29.683Z,100261.88
2022-08-05T14:30:59.150Z,100264.41
2022-08-05T14:33:26.365Z,100257.00
2022-08-05T14:35:54.924Z,100234.50
2022-08-05T14:38:32.458Z,100241.88
2022-08-05T14:41:07.232Z,100237.88
2022-08-05T14:43:59.058Z,100239.56
2022-08-05T14:46:29.766Z,100245.94
2022-08-05T14:49:06.963Z,100216.56
2022-08-05T14:51:37.445Z,100235.06
2022-08-05T14:54:28.401Z,100232.63
2022-08-05T14:56:56.920Z,100227.03
2022-08-05T14:59:24.856Z,100225.81
2022-08-05T15:01:53.796Z,100232.41
2022-08-05T15:04:22.684Z,100234.44
2022-08-05T15:06:51.177Z,100206.25
2022-08-05T15:09:51.099Z,100221.38
2022-08-05T15:12:08.959Z,100207.97
2022-08-05T15:14:41.395Z,100212.06
2022-08-05T15:17:44.787Z,100208.84
2022-08-05T15:20:05.330Z,100214.56
2022-08-05T15:22:33.356Z,100207.22
2022-08-05T15:25:00.775Z,100202.38
2022-08-05T15:27:42.863Z,100198.72
2022-08-05T15:30:19.336Z,100196.25
2022-08-05T15:32:47.433Z,100204.44
2022-08-05T15:35:15.090Z,100202.81
2022-08-05T15:38:32.760Z,100193.81
2022-08-05T15:40:58.793Z,100222.06
2022-08-05T15:43:20.139Z,100206.91
2022-08-05T15:46:00.394Z,100209.03
2022-08-05T15:48:28.656Z,100207.31
2022-08-05T15:50:56.367Z,100223.69
2022-08-05T15:53:26.372Z,100207.31
2022-08-05T15:56:03.898Z,100221.25
2022-08-05T15:58:35.782Z,100216.72
2022-08-05T16:01:16.947Z,100225.34
2022-08-05T16:03:50.750Z,100228.59
2022-08-05T16:06:19.948Z,100224.50
2022-08-05T16:08:50.930Z,100224.59
2022-08-05T16:11:21.134Z,100250.69
2022-08-05T16:14:06.155Z,100211.50
2022-08-05T16:16:35.352Z,100224.59
2022-08-05T16:19:03.766Z,100227.06
2022-08-05T16:21:58.227Z,100227.97
2022-08-05T16:24:40.771Z,100235.75
2022-08-05T16:27:07.325Z,100228.81
2022-08-05T16:29:37.274Z,100230.88
2022-08-05T16:32:09.699Z,100252.53
2022-08-05T16:34:39.371Z,100268.88
2022-08-05T16:38:01.885Z,100282.75
2022-08-05T16:40:05.961Z,100303.94
2022-08-05T16:42:38.885Z,100325.94
2022-08-05T16:46:04.818Z,100307.53
2022-08-05T16:48:02.693Z,100313.97
2022-08-05T16:50:30.836Z,100334.41
2022-08-05T16:52:58.942Z,100328.31
2022-08-05T16:55:46.824Z,100343.00
2022-08-05T16:58:14.725Z,100328.81
2022-08-05T17:00:49.671Z,100323.72
2022-08-05T17:03:19.815Z,100298.78
2022-08-05T17:05:53.942Z,100308.97
2022-08-05T17:08:33.644Z,100297.53
2022-08-05T17:11:18.896Z,100296.72
2022-08-05T17:13:46.701Z,100302.44
2022-08-05T17:16:32.714Z,100297.09
2022-08-05T17:19:01.849Z,100298.84
2022-08-05T17:21:36.023Z,100258.38
2022-08-05T17:24:30.180Z,100283.28
2022-08-05T17:27:00.536Z,100266.16
2022-08-05T17:29:39.931Z,100253.44
2022-08-05T17:32:11.810Z,100271.41
2022-08-05T17:34:48.226Z,100275.09
2022-08-05T17:37:39.716Z,100287.34
2022-08-05T17:40:10.886Z,100289.38
2022-08-05T17:42:42.928Z,100287.75
2022-08-05T17:45:38.075Z,100290.22
2022-08-05T17:48:08.198Z,100286.94
2022-08-05T17:50:35.898Z,100287.78
2022-08-05T17:53:05.059Z,100282.03
2022-08-05T17:55:38.163Z,100280.41
2022-08-05T17:58:12.408Z,100287.75
2022-08-05T18:00:47.450Z,100274.31
2022-08-05T18:03:56.071Z,100291.06
2022-08-05T18:06:12.018Z,100282.06
2022-08-05T18:08:45.754Z,100278.00
2022-08-05T18:11:23.701Z,100306.53
2022-08-05T18:13:54.037Z,100300.00
2022-08-05T18:16:21.416Z,100297.59
2022-08-05T18:18:50.133Z,100314.34
2022-08-05T18:21:21.082Z,100295.94
2022-08-05T18:23:53.698Z,100271.88
2022-08-05T18:26:27.538Z,100290.22
2022-08-05T18:28:57.453Z,100307.78
2022-08-05T18:31:25.147Z,100280.06
2022-08-05T18:33:52.790Z,100285.34
2022-08-05T18:36:20.399Z,100278.81
2022-08-05T18:38:56.064Z,100304.13
2022-08-05T18:41:54.149Z,100289.44
2022-08-05T18:44:12.740Z,100291.88
2022-08-05T18:46:41.002Z,100297.19
2022-08-05T18:49:30.665Z,100291.44
2022-08-05T18:52:32.684Z,100290.22
2022-08-05T18:55:02.941Z,100273.88
2022-08-05T18:57:43.164Z,100277.97
2022-08-05T19:00:20.326Z,100272.25
2022-08-05T19:02:48.441Z,100273.06
2022-08-05T19:06:11.984Z,100245.31
2022-08-05T19:08:13.477Z,100273.06
2022-08-05T19:10:42.775Z,100258.34
2022-08-05T19:13:12.255Z,100242.47
2022-08-05T19:15:58.740Z,100255.91
2022-08-05T19:18:29.097Z,100231.44
2022-08-05T19:20:56.542Z,100237.97
2022-08-05T19:24:06.804Z,100235.53
2022-08-05T19:26:12.754Z,100237.13
2022-08-05T19:28:44.074Z,100253.44
2022-08-05T19:31:13.284Z,100228.94
2022-08-05T19:33:48.493Z,100219.97
2022-08-05T19:36:29.369Z,100206.47
2022-08-05T19:39:01.414Z,100243.63
2022-08-05T19:41:58.323Z,100250.09
2022-08-05T19:44:19.094Z,100245.63
2022-08-05T19:46:47.369Z,100231.34
2022-08-05T19:49:18.082Z,100236.25
2022-08-05T19:52:08.546Z,100240.34
2022-08-05T19:54:35.409Z,100231.75
2022-08-05T19:57:08.577Z,100233.75
2022-08-05T19:59:56.428Z,100247.63
2022-08-05T20:02:31.460Z,100263.97
2022-08-05T20:04:59.966Z,100251.28
2022-08-05T20:07:47.528Z,100241.91
2022-08-05T20:10:17.265Z,100252.91
2022-08-05T20:12:49.226Z,100256.16
2022-08-05T20:15:48.543Z,100274.50
2022-08-05T20:18:10.602Z,100257.38
2022-08-05T20:20:55.063Z,100263.03
2022-08-05T20:23:39.818Z,100267.13
2022-08-05T20:26:16.110Z,100241.84
2022-08-05T20:28:49.869Z,100261.44
2022-08-05T20:31:21.873Z,100250.81
2022-08-05T20:33:51.989Z,100262.28
2022-08-05T20:36:20.884Z,100266.34
2022-08-05T20:38:54.687Z,100266.34
2022-08-05T20:41:43.462Z,100267.16
2022-08-05T20:44:17.736Z,100247.56
2022-08-05T20:46:48.234Z,100259.00
2022-08-05T20:49:24.114Z,100245.91
2022-08-05T20:51:54.271Z,100234.91
2022-08-05T20:54:55.573Z,100272.03
2022-08-05T20:57:42.255Z,100247.09
2022-08-05T21:00:19.756Z,100267.13
2022-08-05T21:02:56.970Z,100259.78
2022-08-05T21:05:24.771Z,100248.38
2022-08-05T21:07:52.581Z,100245.13
2022-08-05T21:10:20.826Z,100247.97
2022-08-05T21:12:58.166Z,100264.34
2022-08-05T21:15:37.038Z,100260.25
2022-08-05T21:18:04.529Z,100254.16
2022-08-05T21:20:32.947Z,100243.59
2022-08-05T21:23:01.244Z,100255.88
2022-08-05T21:25:33.845Z,100240.81
2022-08-05T21:28:03.119Z,100254.28
2022-08-05T21:30:31.929Z,100264.06
2022-08-05T21:33:01.797Z,100255.91
2022-08-05T21:35:56.007Z,100270.22
2022-08-05T21:38:19.319Z,100253.50
2022-08-05T21:40:46.511Z,100260.84
2022-08-05T21:43:24.249Z,100251.88
2022-08-05T21:45:57.827Z,100247.00
2022-08-05T21:48:28.869Z,100255.13
2022-08-05T21:50:57.414Z,100250.22
2022-08-05T21:53:27.766Z,100251.03
2022-08-05T21:56:06.579Z,100257.56
2022-08-05T21:58:57.135Z,100260.84
2022-08-05T22:01:26.193Z,100245.72
2022-08-05T22:03:54.034Z,100252.69
2022-08-05T22:06:39.547Z,100257.16
2022-08-05T22:09:15.145Z,100258.00
2022-08-05T22:11:47.999Z,100268.59
2022-08-05T22:14:35.547Z,100273.09
2022-08-05T22:17:07.078Z,100264.94
2022-08-05T22:20:01.348Z,100273.09
2022-08-05T22:22:28.021Z,100280.47
2022-08-05T22:25:21.342Z,100281.22
2022-08-05T22:28:08.942Z,100298.81
2022-08-05T22:30:55.783Z,100285.72
2022-08-05T22:33:55.371Z,100278.38
2022-08-05T22:36:14.205Z,100277.16
2022-08-05T22:38:47.917Z,100277.16
2022-08-05T22:42:04.250Z,100273.09
2022-08-05T22:44:07.223Z,100273.91
2022-08-05T22:46:39.723Z,100262.84
2022-08-05T22:49:12.514Z,100262.50
2022-08-05T22:52:04.447Z,100273.13
2022-08-05T22:54:34.376Z,100249.03
2022-08-05T22:57:01.619Z,100264.50
2022-08-05T22:59:48.468Z,100257.56
2022-08-05T23:02:28.916Z,100270.63
2022-08-05T23:05:01.799Z,100278.81
2022-08-05T23:07:43.782Z,100278.00
2022-08-05T23:10:13.226Z,100265.72
2022-08-05T23:12:40.727Z,100273.91
2022-08-05T23:15:11.920Z,100265.34
2022-08-05T23:18:00.671Z,100265.75
2022-08-05T23:20:26.668Z,100273.53
2022-08-05T23:22:55.851Z,100277.59
2022-08-05T23:25:52.196Z,100275.56
2022-08-05T23:28:12.196Z,100274.34
2022-08-05T23:30:43.532Z,100279.63
2022-08-05T23:33:21.982Z,100272.72
2022-08-05T23:35:56.015Z,100269.44
2022-08-05T23:38:26.170Z,100268.19
2022-08-05T23:40:54.461Z,100266.16
2022-08-05T23:43:25.443Z,100267.78
2022-08-05T23:46:20.958Z,100254.72
2022-08-05T23:49:00.257Z,100272.25
2022-08-05T23:51:54.888Z,100264.06
2022-08-05T23:54:30.214Z,100277.13
2022-08-05T23:57:04.172Z,100268.97
2022-08-05T23:59:37.740Z,100271.00
